This is the latest recevied weather packets stored in our database for station/object DL9NEE-10. If no packets are shown the sender has not sent any weather packets the latest 10 day(s).
| Time | Temp. | Humidity | Pressure | Rain* | Wind** | Luminosity | Snow |
|---|---|---|---|---|---|---|---|
| 1778001877 | 16.67° C | 71% | 1008.2 hPa | - | - | - | - |
| 1778000977 | 16.67° C | 72% | 1008.2 hPa | - | - | - | - |
| 1778000077 | 16.67° C | 71% | 1008 hPa | - | - | - | - |
| 1777999177 | 16.67° C | 72% | 1008.1 hPa | - | - | - | - |
| 1777998277 | 16.11° C | 73% | 1008.3 hPa | - | - | - | - |
| 1777997376 | 16.67° C | 72% | 1008.2 hPa | - | - | - | - |
| 1777996476 | 17.22° C | 71% | 1008.5 hPa | - | - | - | - |
| 1777995576 | 17.78° C | 68% | 1008.3 hPa | - | - | - | - |
| 1777994676 | 19.44° C | 63% | 1008.1 hPa | - | - | - | - |
| 1777993775 | 25° C | 39% | 1006.9 hPa | - | - | - | - |
| 1777992875 | 26.11° C | 39% | 1006.5 hPa | - | - | - | - |
| 1777991975 | 26.11° C | 39% | 1006.5 hPa | - | - | - | - |
| 1777991075 | 26.11° C | 38% | 1006.6 hPa | - | - | - | - |
| 1777989275 | 27.22° C | 36% | 1006.7 hPa | - | - | - | - |
| 1777988375 | 27.78° C | 35% | 1006.9 hPa | - | - | - | - |
| 1777987474 | 29.44° C | 34% | 1006.9 hPa | - | - | - | - |
| 1777986574 | 30° C | 34% | 1007.2 hPa | - | - | - | - |
| 1777985674 | 30° C | 34% | 1007.2 hPa | - | - | - | - |
| 1777984774 | 29.44° C | 34% | 1007.4 hPa | - | - | - | - |
| 1777983874 | 30° C | 33% | 1007.6 hPa | - | - | - | - |
| 1777982974 | 31.11° C | 33% | 1007.7 hPa | - | - | - | - |
| 1777982074 | 32.22° C | 32% | 1007.9 hPa | - | - | - | - |
| 1777981173 | 34.44° C | 30% | 1008 hPa | - | - | - | - |
| 1777980273 | 48.33° C | 26% | 1008.3 hPa | - | - | - | - |
| 1777979373 | 31.67° C | 35% | 1008.4 hPa | - | - | - | - |
* Rain since midnight (hover to see other rain measurements)
** Current wind speed in m/s (hover to see current wind gust speed)